Time;durP1;ratioP1;P1;durP2;ratioP2;P2;SDS_P1;SDS_P2;PMS_P1;PMS_P2;Temp;Humidity;BMP_temperature;BMP_pressure;BME280_temperature;BME280_humidity;BME280_pressure;Samples;Min_cycle;Max_cycle;Signal;HPM_P1;HPM_P2
2022/12/16 00:00:31;;;;;;;23.05;10.63;;;;;;;0.97;100.00;100985.26;1733061;81;20999;-92
2022/12/16 00:03:16;;;;;;;25.02;10.53;;;;;;;0.98;100.00;100985.56;1720178;80;21043;-92
2022/12/16 00:06:03;;;;;;;23.25;10.20;;;;;;;0.98;100.00;100997.67;1746157;81;21037;-92
2022/12/16 00:08:47;;;;;;;23.02;10.08;;;;;;;0.99;100.00;101012.28;1740948;80;21011;-92
2022/12/16 00:11:32;;;;;;;26.10;10.88;;;;;;;1.04;100.00;101015.19;1732056;80;21011;-93
2022/12/16 00:14:16;;;;;;;24.00;10.48;;;;;;;0.94;100.00;101017.93;1686169;82;20995;-92
2022/12/16 00:17:01;;;;;;;27.22;11.38;;;;;;;0.91;100.00;101022.38;1736244;80;20985;-92
2022/12/16 00:19:46;;;;;;;22.77;9.83;;;;;;;0.94;100.00;101028.70;1745576;80;21063;-92
2022/12/16 00:22:31;;;;;;;27.77;11.93;;;;;;;0.91;100.00;101022.38;1714310;83;21067;-92
2022/12/16 00:25:16;;;;;;;25.37;10.82;;;;;;;0.94;100.00;101026.00;1733301;79;21069;-92
2022/12/16 00:28:00;;;;;;;20.02;9.73;;;;;;;0.95;100.00;101039.80;1716582;81;21437;-93
2022/12/16 00:30:46;;;;;;;25.27;9.90;;;;;;;0.94;100.00;101040.80;1721181;81;21031;-93
2022/12/16 00:33:32;;;;;;;22.30;8.80;;;;;;;0.95;100.00;101043.83;1727114;81;21053;-92
2022/12/16 00:36:17;;;;;;;23.90;9.20;;;;;;;0.97;100.00;101063.30;1750010;81;21086;-93
2022/12/16 00:39:01;;;;;;;23.40;9.78;;;;;;;0.96;100.00;101058.93;1766011;79;21021;-92
2022/12/16 00:41:46;;;;;;;21.02;8.58;;;;;;;0.97;100.00;101057.92;1778687;80;21053;-91
2022/12/16 00:44:31;;;;;;;20.90;9.75;;;;;;;0.95;100.00;101057.28;1757783;80;21039;-92
2022/12/16 00:47:15;;;;;;;23.55;9.35;;;;;;;0.93;100.00;101053.96;1745954;81;20967;-92
2022/12/16 00:50:00;;;;;;;22.67;10.25;;;;;;;0.99;100.00;101045.06;1763493;79;20978;-93
2022/12/16 00:52:46;;;;;;;20.15;8.98;;;;;;;0.95;100.00;101045.17;1739878;80;21357;-92
2022/12/16 00:55:31;;;;;;;23.22;9.33;;;;;;;0.95;100.00;101052.73;1740847;80;21443;-93
2022/12/16 00:58:16;;;;;;;21.33;9.78;;;;;;;0.95;100.00;101057.28;1760184;81;20958;-92
2022/12/16 01:01:01;;;;;;;23.18;10.10;;;;;;;0.96;100.00;101056.24;1690623;82;20990;-92
2022/12/16 01:03:46;;;;;;;23.35;9.75;;;;;;;1.00;100.00;101054.81;1732344;80;21051;-92
2022/12/16 01:06:31;;;;;;;23.73;9.35;;;;;;;0.98;100.00;101068.98;1747687;81;21549;-92
2022/12/16 01:09:15;;;;;;;21.87;10.00;;;;;;;0.98;100.00;101060.91;1741010;80;21028;-92
2022/12/16 01:12:00;;;;;;;23.60;10.20;;;;;;;0.99;100.00;101069.29;1739384;81;21041;-92
2022/12/16 01:14:45;;;;;;;22.32;9.93;;;;;;;0.93;100.00;101073.63;1750230;79;20955;-93
2022/12/16 01:17:30;;;;;;;22.55;10.95;;;;;;;0.90;100.00;101078.59;1745742;80;21044;-92
2022/12/16 01:20:14;;;;;;;22.40;9.78;;;;;;;0.96;100.00;101077.77;1706797;82;21008;-92
2022/12/16 01:22:59;;;;;;;21.90;10.20;;;;;;;0.95;100.00;101084.20;1720447;80;21083;-92
2022/12/16 01:25:44;;;;;;;21.57;9.78;;;;;;;0.93;100.00;101087.59;1723879;81;21024;-92
2022/12/16 01:28:29;;;;;;;21.02;9.00;;;;;;;0.96;100.00;101074.55;1689314;83;21604;-92
2022/12/16 01:31:15;;;;;;;25.72;10.30;;;;;;;1.02;100.00;101055.45;1681440;84;21051;-92
2022/12/16 01:34:01;;;;;;;25.08;10.10;;;;;;;0.97;100.00;101036.39;1703432;82;21416;-92
2022/12/16 01:36:46;;;;;;;22.98;10.38;;;;;;;0.90;100.00;101041.73;1708909;81;21034;-92
2022/12/16 01:39:32;;;;;;;27.75;11.80;;;;;;;0.91;100.00;101047.42;1694611;82;21818;-92
2022/12/16 01:42:20;;;;;;;27.15;12.00;;;;;;;0.91;100.00;101062.75;1706740;83;21017;-92
2022/12/16 01:45:28;;;;;;;24.90;10.88;;;;;;;0.96;100.00;101055.72;1702112;82;21019;-92
2022/12/16 01:48:30;;;;;;;25.65;10.28;;;;;;;0.97;100.00;101047.98;1762896;80;20951;-93
2022/12/16 01:51:34;;;;;;;24.18;10.90;;;;;;;0.98;100.00;101051.49;1689439;83;21054;-92
2022/12/16 01:54:27;;;;;;;27.17;11.40;;;;;;;0.99;100.00;101050.45;1696551;84;21470;-92
2022/12/16 01:57:14;;;;;;;28.38;11.90;;;;;;;1.02;100.00;101054.93;1715966;81;21392;-92
2022/12/16 01:59:59;;;;;;;24.07;11.05;;;;;;;1.01;100.00;101061.33;1742811;79;21016;-92
2022/12/16 02:02:44;;;;;;;26.42;11.28;;;;;;;1.06;100.00;101060.23;1655682;83;21027;-91
2022/12/16 02:05:29;;;;;;;27.45;11.57;;;;;;;1.11;100.00;101070.37;1668306;84;21006;-92
2022/12/16 02:08:17;;;;;;;25.25;11.25;;;;;;;1.08;100.00;101062.70;1721967;81;21392;-92
2022/12/16 02:11:39;;;;;;;22.00;9.23;;;;;;;1.10;100.00;101068.72;1727213;81;21485;-93
2022/12/16 02:14:58;;;;;;;25.48;9.53;;;;;;;1.08;100.00;101061.36;1724014;82;21050;-92
2022/12/16 02:18:03;;;;;;;23.52;10.15;;;;;;;1.08;100.00;101068.91;1748766;81;20997;-92
2022/12/16 02:21:08;;;;;;;22.30;9.55;;;;;;;1.08;100.00;101061.36;1729691;81;20979;-92
2022/12/16 02:24:35;;;;;;;20.27;9.18;;;;;;;1.05;100.00;101057.73;1732924;81;21054;-92
2022/12/16 02:28:16;;;;;;;23.60;9.35;;;;;;;0.94;100.00;101050.22;1738480;81;21559;-91
2022/12/16 02:31:21;;;;;;;19.90;8.58;;;;;;;0.94;100.00;101051.08;1727680;81;21016;-91
2022/12/16 02:34:57;;;;;;;22.10;9.75;;;;;;;0.93;100.00;101041.33;1728441;80;21046;-92
2022/12/16 02:37:49;;;;;;;25.70;9.48;;;;;;;0.96;100.00;101053.55;1666028;85;21041;-92
2022/12/16 02:40:40;;;;;;;22.40;11.40;;;;;;;0.99;100.00;101065.25;1723781;81;21009;-93
2022/12/16 02:43:51;;;;;;;22.40;9.68;;;;;;;0.98;100.00;101074.37;1742079;80;21031;-93
2022/12/16 02:46:41;;;;;;;20.08;8.08;;;;;;;0.95;100.00;101074.78;1745938;81;20974;-92
2022/12/16 02:49:31;;;;;;;22.60;9.40;;;;;;;1.04;100.00;101070.89;1688148;82;21070;-91
2022/12/16 02:52:19;;;;;;;25.48;9.83;;;;;;;1.03;100.00;101067.86;1732259;81;21423;-92
2022/12/16 02:55:05;;;;;;;22.32;9.30;;;;;;;0.97;100.00;101075.41;1733467;81;21144;-92
2022/12/16 02:58:05;;;;;;;21.40;8.90;;;;;;;0.88;100.00;101084.68;1709119;83;21645;-93
2022/12/16 03:00:55;;;;;;;21.37;9.85;;;;;;;0.90;100.00;101086.66;1729878;81;20992;-91
2022/12/16 03:04:02;;;;;;;26.05;10.18;;;;;;;0.90;100.00;101097.42;1719527;81;21551;-91
2022/12/16 03:06:48;;;;;;;23.95;9.70;;;;;;;0.92;100.00;101096.19;1744561;80;21039;-93
2022/12/16 03:09:34;;;;;;;21.25;9.78;;;;;;;0.97;100.00;101095.59;1731097;80;21081;-93
2022/12/16 03:12:19;;;;;;;21.07;9.93;;;;;;;0.97;100.00;101106.36;1669867;84;21027;-92
2022/12/16 03:15:06;;;;;;;20.75;9.40;;;;;;;0.99;100.00;101100.23;1722334;82;21050;-92
2022/12/16 03:17:51;;;;;;;24.00;9.60;;;;;;;0.95;100.00;101108.42;1710847;83;21024;-92
2022/12/16 03:20:44;;;;;;;18.42;8.60;;;;;;;0.95;100.00;101109.23;1712114;80;21005;-92
2022/12/16 03:23:36;;;;;;;22.07;9.63;;;;;;;0.96;100.00;101106.85;1737824;82;21120;-93
2022/12/16 03:26:27;;;;;;;23.52;9.20;;;;;;;1.03;100.00;101105.55;1664319;84;21484;-92
2022/12/16 03:29:47;;;;;;;21.60;8.70;;;;;;;1.05;100.00;101100.80;1736391;82;20993;-91
2022/12/16 03:32:47;;;;;;;22.35;9.78;;;;;;;0.99;100.00;101101.09;1688918;83;21074;-93
2022/12/16 03:36:01;;;;;;;24.60;10.00;;;;;;;0.93;100.00;101098.36;1734621;81;21438;-92
2022/12/16 03:38:45;;;;;;;30.20;11.28;;;;;;;0.95;100.00;101100.34;1713897;82;21507;-92
2022/12/16 03:41:30;;;;;;;28.85;11.65;;;;;;;0.96;100.00;101101.99;1708038;81;21005;-93
2022/12/16 03:44:17;;;;;;;22.67;9.05;;;;;;;1.00;100.00;101096.53;1730906;82;21023;-93
2022/12/16 03:47:02;;;;;;;26.07;10.72;;;;;;;0.98;100.00;101095.38;1660153;85;21062;-93
2022/12/16 03:49:47;;;;;;;29.42;10.65;;;;;;;0.99;100.00;101088.13;1738429;81;20998;-92
2022/12/16 03:52:32;;;;;;;23.60;9.93;;;;;;;1.02;100.00;101087.23;1749751;80;20994;-92
2022/12/16 03:55:16;;;;;;;21.35;9.00;;;;;;;1.01;100.00;101084.72;1757626;80;21052;-92
2022/12/16 03:58:01;;;;;;;27.37;11.83;;;;;;;1.02;100.00;101074.29;1747781;81;21014;-92
2022/12/16 04:00:46;;;;;;;23.75;10.98;;;;;;;1.02;100.00;101075.64;1759559;80;21034;-93
2022/12/16 04:03:30;;;;;;;27.45;10.80;;;;;;;1.02;100.00;101081.02;1757778;80;21010;-92
2022/12/16 04:06:18;;;;;;;28.73;11.60;;;;;;;0.99;100.00;101074.17;1709893;82;21418;-92
2022/12/16 04:09:03;;;;;;;32.30;12.03;;;;;;;0.94;100.00;101082.52;1709965;82;21032;-92
2022/12/16 04:25:00;;;;;;;;;;;;;;;0.97;100.00;101103.15;1671300;84;21070;-92
